Time;durP1;ratioP1;P1;durP2;ratioP2;P2;SDS_P1;SDS_P2;PMS_P1;PMS_P2;Temp;Humidity;BMP_temperature;BMP_pressure;BME280_temperature;BME280_humidity;BME280_pressure;Samples;Min_cycle;Max_cycle;Signal;HPM_P1;HPM_P2
2021/12/25 00:02:08;;;;;;;;;;;7.70;1.00;;;;;;5028357;28;19917;-84
2021/12/25 00:04:33;;;;;;;;;;;7.70;1.00;;;;;;5019693;28;19909;-84
2021/12/25 00:06:59;;;;;;;;;;;7.70;1.00;;;;;;5036360;28;19916;-84
2021/12/25 00:09:25;;;;;;;;;;;7.70;1.00;;;;;;5030267;28;19981;-84
2021/12/25 00:11:50;;;;;;;;;;;7.60;1.00;;;;;;5029376;28;19910;-86
2021/12/25 00:14:16;;;;;;;;;;;7.60;1.00;;;;;;5018385;28;20000;-84
2021/12/25 00:16:41;;;;;;;;;;;7.60;1.00;;;;;;5029150;28;19931;-84
2021/12/25 00:19:07;;;;;;;;;;;7.60;1.00;;;;;;5037331;28;19967;-86
2021/12/25 00:21:33;;;;;;;;;;;7.60;1.00;;;;;;5029968;28;19964;-84
2021/12/25 00:23:58;;;;;;;;;;;7.50;1.00;;;;;;5032655;28;20044;-84
2021/12/25 00:26:41;;;;;;;;;;;7.50;1.00;;;;;;5029288;28;19964;-85
2021/12/25 00:29:36;;;;;;;;;;;7.50;1.00;;;;;;5034949;28;19917;-85
2021/12/25 00:32:11;;;;;;;;;;;7.50;1.00;;;;;;5033428;28;19920;-85
2021/12/25 00:34:37;;;;;;;;;;;7.50;1.00;;;;;;5032605;28;19920;-84
2021/12/25 00:37:04;;;;;;;;;;;7.50;1.00;;;;;;5037447;28;19914;-84
2021/12/25 00:39:30;;;;;;;;;;;7.50;1.00;;;;;;5039478;28;19909;-85
2021/12/25 00:41:59;;;;;;;;;;;7.50;1.00;;;;;;5043328;28;19984;-85
2021/12/25 00:44:25;;;;;;;;;;;7.50;1.00;;;;;;5026406;28;20003;-85
2021/12/25 00:46:50;;;;;;;;;;;7.50;1.00;;;;;;5034661;28;19920;-85
2021/12/25 00:49:16;;;;;;;;;;;7.40;1.00;;;;;;5025573;28;19940;-85
2021/12/25 00:51:41;;;;;;;;;;;7.40;1.00;;;;;;5027412;28;19918;-84
2021/12/25 00:54:07;;;;;;;;;;;7.40;1.00;;;;;;5028974;28;19910;-84
2021/12/25 00:56:32;;;;;;;;;;;7.40;1.00;;;;;;5034529;28;19953;-84
2021/12/25 00:58:59;;;;;;;;;;;7.40;1.00;;;;;;5040367;28;19913;-85
2021/12/25 01:01:24;;;;;;;;;;;7.30;1.00;;;;;;5033117;28;20012;-83
2021/12/25 01:03:50;;;;;;;;;;;7.40;1.00;;;;;;5025583;28;19920;-86
2021/12/25 01:06:15;;;;;;;;;;;7.30;1.00;;;;;;5033285;28;19953;-84
2021/12/25 01:08:41;;;;;;;;;;;7.30;1.00;;;;;;5036435;28;19917;-84
2021/12/25 01:11:06;;;;;;;;;;;7.30;1.00;;;;;;5036017;28;19913;-85
2021/12/25 01:13:37;;;;;;;;;;;7.30;1.00;;;;;;5041649;28;19913;-85
2021/12/25 01:31:43;;;;;;;;;;;7.10;1.00;;;;;;5034550;28;19932;-83
2021/12/25 01:37:06;;;;;;;;;;;7.10;1.00;;;;;;5040132;28;19920;-83
2021/12/25 01:47:51;;;;;;;;;;;7.10;1.00;;;;;;5040676;28;20293;-83
2021/12/25 01:50:19;;;;;;;;;;;7.10;1.00;;;;;;5038715;28;19913;-83
2021/12/25 01:52:44;;;;;;;;;;;7.00;1.00;;;;;;5039006;28;19913;-83
2021/12/25 01:55:11;;;;;;;;;;;7.00;1.00;;;;;;5046732;28;20000;-84
2021/12/25 01:57:37;;;;;;;;;;;7.00;1.00;;;;;;5044956;28;19913;-82
2021/12/25 02:00:10;;;;;;;;;;;6.90;1.00;;;;;;5043115;28;19952;-84
2021/12/25 02:02:35;;;;;;;;;;;6.90;1.00;;;;;;5037760;28;19921;-84
2021/12/25 02:05:01;;;;;;;;;;;6.80;1.00;;;;;;5040415;28;20475;-83
2021/12/25 02:07:26;;;;;;;;;;;6.80;1.00;;;;;;5036907;28;19918;-83
2021/12/25 02:09:52;;;;;;;;;;;6.70;1.00;;;;;;5042870;28;19917;-84
2021/12/25 02:12:17;;;;;;;;;;;6.80;1.00;;;;;;5035422;28;19913;-83
2021/12/25 02:14:45;;;;;;;;;;;6.80;1.00;;;;;;5035558;28;19921;-83
2021/12/25 02:17:27;;;;;;;;;;;6.80;1.00;;;;;;5040848;28;19913;-83
2021/12/25 02:20:13;;;;;;;;;;;6.80;1.00;;;;;;5033313;28;20389;-84
2021/12/25 02:22:39;;;;;;;;;;;6.80;1.00;;;;;;5037758;28;19957;-83
2021/12/25 02:25:05;;;;;;;;;;;6.80;1.00;;;;;;5033997;28;20004;-84
2021/12/25 02:27:31;;;;;;;;;;;6.80;1.00;;;;;;5030347;28;20395;-84
2021/12/25 02:29:56;;;;;;;;;;;6.80;1.00;;;;;;5038832;28;19995;-83
2021/12/25 02:32:22;;;;;;;;;;;6.80;1.00;;;;;;5033957;28;19913;-84
2021/12/25 02:34:49;;;;;;;;;;;6.70;1.00;;;;;;5040900;28;20373;-85
2021/12/25 02:37:15;;;;;;;;;;;6.70;1.00;;;;;;5040471;28;19913;-84
2021/12/25 02:39:40;;;;;;;;;;;6.60;1.00;;;;;;5034503;28;19979;-84
2021/12/25 02:42:06;;;;;;;;;;;6.70;1.00;;;;;;5038367;28;19949;-84
2021/12/25 02:44:31;;;;;;;;;;;6.70;1.00;;;;;;5036577;28;19913;-83
2021/12/25 02:46:59;;;;;;;;;;;6.60;1.00;;;;;;5037224;28;19913;-84
2021/12/25 02:49:24;;;;;;;;;;;6.60;1.00;;;;;;5037212;28;19918;-84
2021/12/25 02:51:52;;;;;;;;;;;6.50;1.00;;;;;;5034012;28;19932;-83
2021/12/25 02:54:17;;;;;;;;;;;6.50;1.00;;;;;;5033845;28;19917;-84
2021/12/25 02:56:43;;;;;;;;;;;6.50;1.00;;;;;;5041702;28;19920;-83
2021/12/25 02:59:15;;;;;;;;;;;6.50;1.00;;;;;;5035294;28;19936;-83
2021/12/25 03:01:41;;;;;;;;;;;6.50;1.00;;;;;;5041129;28;19917;-84
2021/12/25 03:04:06;;;;;;;;;;;6.50;1.00;;;;;;5045069;28;19975;-85
2021/12/25 03:06:36;;;;;;;;;;;6.40;1.00;;;;;;5046818;28;19936;-85
2021/12/25 03:09:02;;;;;;;;;;;6.40;1.00;;;;;;5044000;28;20380;-84
2021/12/25 03:11:28;;;;;;;;;;;6.30;1.00;;;;;;5044848;28;19913;-85
2021/12/25 03:13:59;;;;;;;;;;;6.30;1.00;;;;;;5045332;28;20071;-85
2021/12/25 03:16:25;;;;;;;;;;;6.20;1.00;;;;;;5029603;28;19909;-84
2021/12/25 03:18:53;;;;;;;;;;;6.20;1.00;;;;;;5042434;28;19917;-83
2021/12/25 03:21:19;;;;;;;;;;;6.10;1.00;;;;;;5038444;28;19910;-83
2021/12/25 03:23:46;;;;;;;;;;;6.10;1.00;;;;;;5036000;28;19922;-83
2021/12/25 03:26:11;;;;;;;;;;;6.00;1.00;;;;;;5038732;28;19909;-84
2021/12/25 03:28:40;;;;;;;;;;;6.00;1.00;;;;;;5039092;28;19979;-84
2021/12/25 03:31:13;;;;;;;;;;;6.00;1.00;;;;;;5032758;28;19921;-83
2021/12/25 03:33:38;;;;;;;;;;;6.00;1.00;;;;;;5034903;28;19913;-83
2021/12/25 03:36:04;;;;;;;;;;;6.10;1.00;;;;;;5038997;28;19988;-84
2021/12/25 03:38:30;;;;;;;;;;;6.10;1.00;;;;;;5042869;28;19989;-83
2021/12/25 03:40:56;;;;;;;;;;;6.00;1.00;;;;;;5041146;28;19921;-83
2021/12/25 03:43:22;;;;;;;;;;;5.90;1.00;;;;;;5034181;28;19913;-83
2021/12/25 03:45:48;;;;;;;;;;;5.90;1.00;;;;;;5031329;28;19913;-83
2021/12/25 03:48:42;;;;;;;;;;;5.90;1.00;;;;;;5042628;28;19921;-84
2021/12/25 03:59:05;;;;;;;;;;;5.80;1.00;;;;;;5035439;28;19998;-83
2021/12/25 04:01:46;;;;;;;;;;;5.80;1.00;;;;;;5037539;28;19940;-84
2021/12/25 04:04:32;;;;;;;;;;;5.80;1.00;;;;;;5038285;28;19967;-85
2021/12/25 04:07:37;;;;;;;;;;;5.80;1.00;;;;;;5040418;28;19913;-84
2021/12/25 04:09:47;;;;;;;;;;;5.70;1.00;;;;;;5040138;28;19927;-84
2021/12/25 04:12:13;;;;;;;;;;;5.70;1.00;;;;;;5035696;28;19914;-83
2021/12/25 04:14:39;;;;;;;;;;;5.70;1.00;;;;;;5042119;28;20008;-84
2021/12/25 04:17:05;;;;;;;;;;;5.60;1.00;;;;;;5026459;28;19936;-84
2021/12/25 04:19:30;;;;;;;;;;;5.60;1.00;;;;;;5043626;28;19913;-84
2021/12/25 04:22:07;;;;;;;;;;;5.60;1.00;;;;;;5036441;28;20370;-83
2021/12/25 04:24:36;;;;;;;;;;;5.60;1.00;;;;;;5037931;28;19919;-83
2021/12/25 04:27:02;;;;;;;;;;;5.60;1.00;;;;;;5026749;28;19913;-83
2021/12/25 04:42:50;;;;;;;;;;;5.30;1.00;;;;;;5024802;28;20028;-84
2021/12/25 05:02:00;;;;;;;;;;;5.10;1.00;;;;;;5035328;28;19927;-83
2021/12/25 05:04:16;;;;;;;;;;;5.10;1.00;;;;;;5023593;28;19913;-83
2021/12/25 05:06:42;;;;;;;;;;;5.00;1.00;;;;;;5034380;28;19979;-82
2021/12/25 05:09:07;;;;;;;;;;;5.00;1.00;;;;;;5024269;28;19917;-82
2021/12/25 05:11:33;;;;;;;;;;;4.90;1.00;;;;;;5027082;28;19953;-83
2021/12/25 05:13:58;;;;;;;;;;;4.90;1.00;;;;;;5007495;28;19914;-83
2021/12/25 05:16:25;;;;;;;;;;;4.90;1.00;;;;;;5031418;28;19914;-82
2021/12/25 05:18:51;;;;;;;;;;;4.90;1.00;;;;;;5036372;28;19921;-83
2021/12/25 05:21:18;;;;;;;;;;;4.80;1.00;;;;;;5037737;28;19914;-83
2021/12/25 05:23:44;;;;;;;;;;;4.80;1.00;;;;;;5031207;28;19952;-83
2021/12/25 05:26:09;;;;;;;;;;;4.80;1.00;;;;;;5028659;28;19920;-83
2021/12/25 05:28:46;;;;;;;;;;;4.80;1.00;;;;;;5040194;28;19913;-83
2021/12/25 05:31:13;;;;;;;;;;;4.80;1.00;;;;;;5040908;28;19924;-83
2021/12/25 05:33:39;;;;;;;;;;;4.80;1.00;;;;;;5040367;28;19913;-83
2021/12/25 05:36:04;;;;;;;;;;;4.80;1.00;;;;;;5041444;28;19920;-82
2021/12/25 05:38:30;;;;;;;;;;;4.80;1.00;;;;;;5041596;28;19913;-83
2021/12/25 05:40:56;;;;;;;;;;;4.70;1.00;;;;;;5040047;28;20403;-82
2021/12/25 05:43:21;;;;;;;;;;;4.70;1.00;;;;;;5033423;28;19921;-82
2021/12/25 05:45:47;;;;;;;;;;;4.60;1.00;;;;;;5036260;28;19920;-82
2021/12/25 05:48:12;;;;;;;;;;;4.60;1.00;;;;;;5033566;28;20280;-83
2021/12/25 05:50:38;;;;;;;;;;;4.60;1.00;;;;;;5031157;28;19917;-83
2021/12/25 05:53:05;;;;;;;;;;;4.70;1.00;;;;;;5020903;28;20357;-82
2021/12/25 05:55:31;;;;;;;;;;;4.70;1.00;;;;;;5031134;28;19917;-83
2021/12/25 05:57:56;;;;;;;;;;;4.70;1.00;;;;;;5035233;28;20373;-84
2021/12/25 06:00:22;;;;;;;;;;;4.60;1.00;;;;;;5033435;28;19913;-83
2021/12/25 06:02:48;;;;;;;;;;;4.60;1.00;;;;;;5041726;28;19913;-83
2021/12/25 06:05:13;;;;;;;;;;;4.60;1.00;;;;;;5033897;28;19932;-83
2021/12/25 06:07:39;;;;;;;;;;;4.50;1.00;;;;;;5043494;28;19967;-83
2021/12/25 06:10:08;;;;;;;;;;;4.40;1.00;;;;;;5032244;28;19964;-83
2021/12/25 06:12:34;;;;;;;;;;;4.40;1.00;;;;;;5041957;28;19913;-83
2021/12/25 06:15:02;;;;;;;;;;;4.30;1.00;;;;;;5040511;28;19914;-83
2021/12/25 06:17:27;;;;;;;;;;;4.30;1.00;;;;;;5034484;28;19916;-83
2021/12/25 06:19:53;;;;;;;;;;;4.20;1.00;;;;;;5040940;28;20008;-82
2021/12/25 06:22:19;;;;;;;;;;;4.30;1.00;;;;;;5036773;28;19921;-83
2021/12/25 06:24:49;;;;;;;;;;;4.20;1.00;;;;;;5041844;28;19957;-83
2021/12/25 06:27:22;;;;;;;;;;;4.20;1.00;;;;;;5027509;28;19924;-83
2021/12/25 06:29:48;;;;;;;;;;;4.20;1.00;;;;;;5037768;28;20308;-83
2021/12/25 06:32:14;;;;;;;;;;;4.20;1.00;;;;;;5027975;28;19913;-82
2021/12/25 06:34:39;;;;;;;;;;;4.20;1.00;;;;;;5036220;28;19913;-83
2021/12/25 06:37:05;;;;;;;;;;;4.20;1.00;;;;;;5037257;28;19917;-83
2021/12/25 06:39:31;;;;;;;;;;;4.20;1.00;;;;;;5034399;28;19936;-83
2021/12/25 06:41:57;;;;;;;;;;;4.20;1.00;;;;;;5030262;28;19920;-82
2021/12/25 06:44:25;;;;;;;;;;;4.20;1.00;;;;;;5036202;28;19913;-83
2021/12/25 06:46:51;;;;;;;;;;;4.10;1.00;;;;;;5041481;28;20381;-83
2021/12/25 06:49:17;;;;;;;;;;;4.10;1.00;;;;;;5035808;28;19924;-83
2021/12/25 06:51:42;;;;;;;;;;;4.20;1.00;;;;;;5041622;28;19952;-83
2021/12/25 06:54:08;;;;;;;;;;;4.10;1.00;;;;;;5041454;28;19909;-83
2021/12/25 06:56:33;;;;;;;;;;;4.00;1.00;;;;;;5041025;28;19952;-83
2021/12/25 06:58:59;;;;;;;;;;;4.10;1.00;;;;;;5035968;28;19920;-82
2021/12/25 07:01:24;;;;;;;;;;;4.00;1.00;;;;;;5030759;28;19952;-82
2021/12/25 07:03:50;;;;;;;;;;;4.00;1.00;;;;;;5039704;28;20274;-82
2021/12/25 07:06:16;;;;;;;;;;;4.10;1.00;;;;;;5037941;28;20057;-82
2021/12/25 07:08:41;;;;;;;;;;;4.00;1.00;;;;;;5040009;28;19913;-83
2021/12/25 07:11:06;;;;;;;;;;;4.00;1.00;;;;;;5042024;28;19987;-83
2021/12/25 07:13:32;;;;;;;;;;;4.10;1.00;;;;;;5042281;28;20297;-84
2021/12/25 07:15:57;;;;;;;;;;;4.10;1.00;;;;;;5042197;28;19975;-83
2021/12/25 07:18:23;;;;;;;;;;;4.00;1.00;;;;;;5043796;28;19917;-84
2021/12/25 07:20:50;;;;;;;;;;;4.10;1.00;;;;;;5042769;28;19914;-83
2021/12/25 07:23:16;;;;;;;;;;;4.10;1.00;;;;;;5043524;28;19909;-83
2021/12/25 07:25:42;;;;;;;;;;;4.00;1.00;;;;;;5042966;28;19971;-84
2021/12/25 07:28:07;;;;;;;;;;;4.00;1.00;;;;;;5043096;28;20006;-84
2021/12/25 07:30:33;;;;;;;;;;;4.00;1.00;;;;;;5041657;28;19967;-84
2021/12/25 07:32:58;;;;;;;;;;;3.90;1.00;;;;;;5033892;28;19936;-84
2021/12/25 07:35:24;;;;;;;;;;;3.80;1.00;;;;;;5042802;28;19920;-84
2021/12/25 07:37:49;;;;;;;;;;;3.80;1.00;;;;;;5042462;28;19913;-84
2021/12/25 07:40:15;;;;;;;;;;;3.70;1.00;;;;;;5043526;28;19920;-83
2021/12/25 07:42:40;;;;;;;;;;;3.70;1.00;;;;;;5042769;28;19944;-83
2021/12/25 07:45:07;;;;;;;;;;;3.70;1.00;;;;;;5035758;28;19936;-83
2021/12/25 07:47:34;;;;;;;;;;;3.70;1.00;;;;;;5043398;28;19936;-84
2021/12/25 07:50:00;;;;;;;;;;;3.60;1.00;;;;;;5036090;28;19924;-83
2021/12/25 07:52:26;;;;;;;;;;;3.60;1.00;;;;;;5039402;28;19913;-83
2021/12/25 07:54:52;;;;;;;;;;;3.60;1.00;;;;;;5036783;28;19990;-83
2021/12/25 07:57:18;;;;;;;;;;;3.60;1.00;;;;;;5030978;28;20012;-83
2021/12/25 07:59:43;;;;;;;;;;;3.50;1.00;;;;;;5039443;28;19917;-83
2021/12/25 08:02:09;;;;;;;;;;;3.50;1.00;;;;;;5030916;28;20254;-83
2021/12/25 08:04:34;;;;;;;;;;;3.60;1.00;;;;;;5032920;28;19921;-84
2021/12/25 08:07:00;;;;;;;;;;;3.60;1.00;;;;;;5038213;28;19913;-83
2021/12/25 08:09:29;;;;;;;;;;;3.60;1.00;;;;;;5040725;28;19917;-83
2021/12/25 08:12:01;;;;;;;;;;;3.50;1.00;;;;;;5040654;28;19914;-83
2021/12/25 08:14:27;;;;;;;;;;;3.50;1.00;;;;;;5038935;28;19913;-83
2021/12/25 08:16:53;;;;;;;;;;;3.40;1.00;;;;;;5026909;28;19920;-84
2021/12/25 08:19:20;;;;;;;;;;;3.40;1.00;;;;;;5025204;28;19953;-83
2021/12/25 08:21:45;;;;;;;;;;;3.40;1.00;;;;;;5035034;28;19913;-84
2021/12/25 08:24:11;;;;;;;;;;;3.40;1.00;;;;;;5032627;28;20008;-84
2021/12/25 08:26:37;;;;;;;;;;;3.40;1.00;;;;;;5034255;28;19956;-83
2021/12/25 08:29:02;;;;;;;;;;;3.40;1.00;;;;;;5022122;28;19913;-84
2021/12/25 08:31:27;;;;;;;;;;;3.40;1.00;;;;;;5032120;28;20003;-84
2021/12/25 08:33:53;;;;;;;;;;;3.40;1.00;;;;;;5035415;28;21324;-85
2021/12/25 08:36:18;;;;;;;;;;;3.40;1.00;;;;;;5034298;28;19920;-84
2021/12/25 08:38:44;;;;;;;;;;;3.40;1.00;;;;;;5037917;28;19924;-83
2021/12/25 08:41:09;;;;;;;;;;;3.50;1.00;;;;;;5035580;28;19989;-84
2021/12/25 08:43:45;;;;;;;;;;;3.50;1.00;;;;;;5037258;28;20365;-83
2021/12/25 08:46:15;;;;;;;;;;;3.50;1.00;;;;;;5037179;28;19940;-84
2021/12/25 08:48:41;;;;;;;;;;;3.50;1.00;;;;;;5030798;28;19968;-84
2021/12/25 08:51:06;;;;;;;;;;;3.50;1.00;;;;;;5034243;28;19920;-85
2021/12/25 08:53:32;;;;;;;;;;;3.50;1.00;;;;;;5029051;28;19920;-84
2021/12/25 08:55:58;;;;;;;;;;;3.50;1.00;;;;;;5040063;28;19913;-83
2021/12/25 08:58:24;;;;;;;;;;;3.50;1.00;;;;;;5034703;28;20016;-83
2021/12/25 09:00:55;;;;;;;;;;;3.50;1.00;;;;;;5026154;28;19925;-83
2021/12/25 09:03:21;;;;;;;;;;;3.50;1.00;;;;;;5033774;28;19921;-82
2021/12/25 09:05:46;;;;;;;;;;;3.50;1.00;;;;;;5034839;28;20087;-83
2021/12/25 09:08:12;;;;;;;;;;;3.60;1.00;;;;;;5032552;28;20023;-83
2021/12/25 09:10:37;;;;;;;;;;;3.60;1.00;;;;;;5029162;28;19935;-83
2021/12/25 09:13:03;;;;;;;;;;;3.50;99.90;;;;;;5026085;28;19924;-83
2021/12/25 09:15:28;;;;;;;;;;;3.50;99.90;;;;;;5021579;28;19913;-83
2021/12/25 09:17:54;;;;;;;;;;;3.50;99.90;;;;;;5036464;28;20068;-83
2021/12/25 09:20:21;;;;;;;;;;;3.50;99.90;;;;;;5031529;28;19917;-83
2021/12/25 09:22:46;;;;;;;;;;;3.50;99.90;;;;;;5036670;28;19945;-84
2021/12/25 09:25:13;;;;;;;;;;;3.40;99.90;;;;;;5037483;28;19933;-84
2021/12/25 09:27:38;;;;;;;;;;;3.30;99.90;;;;;;5035460;28;19993;-84
2021/12/25 09:30:05;;;;;;;;;;;3.40;99.90;;;;;;5033721;28;19972;-84
2021/12/25 09:32:30;;;;;;;;;;;3.30;99.90;;;;;;5032189;28;19913;-84
2021/12/25 09:35:00;;;;;;;;;;;3.30;99.90;;;;;;5029689;28;20285;-83
2021/12/25 09:37:25;;;;;;;;;;;3.30;99.90;;;;;;5025700;28;19959;-84
2021/12/25 09:39:51;;;;;;;;;;;3.30;99.90;;;;;;5026891;28;20302;-83
2021/12/25 09:42:19;;;;;;;;;;;3.30;99.90;;;;;;5034384;28;19924;-85
2021/12/25 09:44:44;;;;;;;;;;;3.30;99.90;;;;;;5027000;28;19913;-84
2021/12/25 09:47:09;;;;;;;;;;;3.40;99.90;;;;;;5022850;28;19959;-83
2021/12/25 09:49:35;;;;;;;;;;;3.40;99.90;;;;;;5029949;28;20010;-83
2021/12/25 09:52:00;;;;;;;;;;;3.40;99.90;;;;;;5025789;28;19918;-84
2021/12/25 09:54:26;;;;;;;;;;;3.40;99.90;;;;;;5029873;28;19936;-84
2021/12/25 09:56:56;;;;;;;;;;;3.50;99.90;;;;;;5028752;28;19921;-83
2021/12/25 09:59:22;;;;;;;;;;;3.50;99.90;;;;;;5029880;28;19913;-84
2021/12/25 10:01:49;;;;;;;;;;;3.50;99.90;;;;;;5061093;23;20015;-81
2021/12/25 10:04:34;;;;;;;;;;;3.50;99.90;;;;;;5055755;28;19919;-80
2021/12/25 10:07:12;;;;;;;;;;;3.50;99.90;;;;;;5038252;28;19912;-81
2021/12/25 10:09:38;;;;;;;;;;;3.60;99.90;;;;;;5056422;28;19917;-81
2021/12/25 10:12:07;;;;;;;;;;;3.80;99.90;;;;;;5057906;28;19947;-80
2021/12/25 10:14:33;;;;;;;;;;;3.70;99.90;;;;;;5038868;28;21279;-81
2021/12/25 10:16:58;;;;;;;;;;;3.70;99.90;;;;;;5039752;28;19912;-82
2021/12/25 10:19:27;;;;;;;;;;;3.70;99.90;;;;;;5054404;28;19996;-80
2021/12/25 10:22:21;;;;;;;;;;;3.70;99.90;;;;;;5048737;28;19916;-80
2021/12/25 10:25:02;;;;;;;;;;;3.80;99.90;;;;;;5034942;28;19913;-79
2021/12/25 10:27:28;;;;;;;;;;;3.90;99.90;;;;;;5049557;28;19912;-81
2021/12/25 10:30:00;;;;;;;;;;;3.90;99.90;;;;;;5059104;28;19912;-81
2021/12/25 10:32:26;;;;;;;;;;;3.90;99.90;;;;;;5051133;28;20328;-80
2021/12/25 10:34:53;;;;;;;;;;;4.00;99.90;;;;;;5063356;28;19912;-80
2021/12/25 10:37:20;;;;;;;;;;;3.90;99.90;;;;;;5046333;28;19915;-81
2021/12/25 10:39:46;;;;;;;;;;;3.80;75.90;;;;;;5059103;28;20015;-80
2021/12/25 10:42:22;;;;;;;;;;;3.70;98.20;;;;;;5056340;28;19917;-81
2021/12/25 10:44:48;;;;;;;;;;;3.70;92.90;;;;;;5041844;28;19913;-81
2021/12/25 10:47:13;;;;;;;;;;;3.70;99.90;;;;;;5042091;28;19982;-80
2021/12/25 10:49:42;;;;;;;;;;;3.60;99.90;;;;;;5040872;28;20331;-79
2021/12/25 10:52:09;;;;;;;;;;;3.60;99.90;;;;;;5037390;28;19913;-80
2021/12/25 10:54:40;;;;;;;;;;;3.60;99.90;;;;;;5048073;28;19908;-79
2021/12/25 10:57:06;;;;;;;;;;;3.60;99.90;;;;;;5058011;28;19917;-79
2021/12/25 10:59:42;;;;;;;;;;;3.70;99.90;;;;;;5039127;28;19916;-80
2021/12/25 11:02:07;;;;;;;;;;;3.70;99.90;;;;;;5033561;28;19942;-80
2021/12/25 11:04:37;;;;;;;;;;;3.70;99.90;;;;;;5056976;28;19912;-80
2021/12/25 11:07:16;;;;;;;;;;;3.70;99.90;;;;;;5040233;28;19913;-81
2021/12/25 11:10:01;;;;;;;;;;;3.70;99.90;;;;;;5037369;28;19967;-79
2021/12/25 11:12:26;;;;;;;;;;;3.80;99.90;;;;;;5043350;28;19966;-80
2021/12/25 11:15:07;;;;;;;;;;;3.90;99.90;;;;;;5037117;28;19913;-80
2021/12/25 11:17:35;;;;;;;;;;;4.00;23.80;;;;;;5035673;28;19936;-80
2021/12/25 11:20:01;;;;;;;;;;;4.20;1.00;;;;;;5057778;28;20339;-79
2021/12/25 11:22:44;;;;;;;;;;;4.30;1.00;;;;;;5039241;28;19919;-81
2021/12/25 11:25:09;;;;;;;;;;;4.30;1.00;;;;;;5055686;28;19959;-80
2021/12/25 11:27:35;;;;;;;;;;;4.40;1.00;;;;;;5039882;28;19913;-79
2021/12/25 11:30:02;;;;;;;;;;;4.40;1.00;;;;;;5057622;28;19919;-80
2021/12/25 11:32:27;;;;;;;;;;;4.40;1.00;;;;;;5054539;28;19916;-81
2021/12/25 11:34:53;;;;;;;;;;;4.30;99.90;;;;;;5057788;28;19956;-80
2021/12/25 11:37:18;;;;;;;;;;;4.20;99.90;;;;;;5038914;28;19913;-80
2021/12/25 11:39:44;;;;;;;;;;;4.10;99.90;;;;;;5032038;28;19913;-80
2021/12/25 11:42:11;;;;;;;;;;;4.00;99.90;;;;;;5037934;28;19916;-79
2021/12/25 11:44:51;;;;;;;;;;;3.90;99.90;;;;;;5055267;28;19913;-80
2021/12/25 11:47:31;;;;;;;;;;;3.90;99.90;;;;;;5057829;28;19917;-80
2021/12/25 11:49:58;;;;;;;;;;;3.90;99.90;;;;;;5053146;28;19913;-80
2021/12/25 11:52:28;;;;;;;;;;;3.90;99.90;;;;;;5029733;28;19913;-79
2021/12/25 12:00:13;;;;;;;;;;;3.90;99.90;;;;;;5047174;28;19958;-81
2021/12/25 12:02:39;;;;;;;;;;;4.00;99.90;;;;;;5054513;28;20359;-79
2021/12/25 12:05:18;;;;;;;;;;;4.00;99.90;;;;;;5051752;28;20424;-80
2021/12/25 12:07:57;;;;;;;;;;;4.00;99.90;;;;;;5048609;28;19920;-80
2021/12/25 12:10:42;;;;;;;;;;;4.00;99.90;;;;;;5043718;28;19971;-80
2021/12/25 12:13:18;;;;;;;;;;;4.00;99.90;;;;;;5038619;28;20442;-80
2021/12/25 12:15:48;;;;;;;;;;;3.90;99.90;;;;;;5038751;28;19913;-79
2021/12/25 12:18:23;;;;;;;;;;;3.70;1.00;;;;;;5036578;28;20297;-80
2021/12/25 12:20:49;;;;;;;;;;;3.70;61.90;;;;;;5054586;28;20431;-80
2021/12/25 12:24:21;;;;;;;;;;;3.60;21.10;;;;;;5038502;28;19966;-79
2021/12/25 12:26:44;;;;;;;;;;;3.50;99.90;;;;;;4989226;28;19921;-80
2021/12/25 12:29:11;;;;;;;;;;;3.60;99.90;;;;;;5048249;28;19913;-79
2021/12/25 12:31:37;;;;;;;;;;;3.60;90.80;;;;;;5052516;28;19956;-79
2021/12/25 12:34:22;;;;;;;;;;;3.50;96.60;;;;;;5045846;28;19924;-80
2021/12/25 12:36:47;;;;;;;;;;;3.40;57.80;;;;;;5049802;28;20398;-81
2021/12/25 12:39:14;;;;;;;;;;;3.40;99.90;;;;;;5046597;28;20011;-80
2021/12/25 12:41:49;;;;;;;;;;;3.40;99.90;;;;;;5048913;28;20357;-81
2021/12/25 12:44:15;;;;;;;;;;;3.40;99.90;;;;;;5038567;28;19934;-81
2021/12/25 12:46:51;;;;;;;;;;;3.40;99.90;;;;;;5038187;28;19924;-81
2021/12/25 12:49:19;;;;;;;;;;;3.40;99.90;;;;;;5054437;28;19920;-80
2021/12/25 12:51:45;;;;;;;;;;;3.30;1.00;;;;;;5054270;28;19913;-81
2021/12/25 12:54:10;;;;;;;;;;;3.40;99.90;;;;;;5033018;28;19913;-80
2021/12/25 12:56:56;;;;;;;;;;;3.40;99.90;;;;;;5048314;28;19919;-80
2021/12/25 12:59:21;;;;;;;;;;;3.40;99.90;;;;;;5036195;28;20374;-80
2021/12/25 13:01:47;;;;;;;;;;;3.40;91.90;;;;;;5053037;28;20011;-80
2021/12/25 13:04:12;;;;;;;;;;;3.40;99.90;;;;;;5035244;28;20344;-80
2021/12/25 13:06:37;;;;;;;;;;;3.30;54.40;;;;;;5053235;28;19940;-80
2021/12/25 13:09:07;;;;;;;;;;;3.30;28.10;;;;;;5034954;28;19912;-80
2021/12/25 13:11:42;;;;;;;;;;;3.30;99.90;;;;;;5050812;28;19923;-80
2021/12/25 13:14:09;;;;;;;;;;;3.40;99.90;;;;;;5030475;28;20002;-79
2021/12/25 13:16:40;;;;;;;;;;;3.50;26.40;;;;;;5032083;28;19913;-80
2021/12/25 13:19:06;;;;;;;;;;;3.40;56.70;;;;;;5054032;28;20300;-81
2021/12/25 13:21:33;;;;;;;;;;;3.40;1.00;;;;;;5035482;28;20052;-81
2021/12/25 13:24:14;;;;;;;;;;;3.30;1.00;;;;;;5044436;28;19913;-80
2021/12/25 13:26:45;;;;;;;;;;;3.30;1.00;;;;;;5053538;28;20304;-80
2021/12/25 13:29:12;;;;;;;;;;;3.30;71.20;;;;;;5034351;28;19948;-81
2021/12/25 13:31:39;;;;;;;;;;;3.30;99.90;;;;;;5030590;28;19952;-80
2021/12/25 13:34:11;;;;;;;;;;;3.40;25.60;;;;;;5028732;28;20354;-79
2021/12/25 13:36:37;;;;;;;;;;;3.40;13.80;;;;;;5044969;28;19940;-79
2021/12/25 13:39:07;;;;;;;;;;;3.40;98.30;;;;;;5057345;28;19955;-80
2021/12/25 13:41:47;;;;;;;;;;;3.50;6.00;;;;;;5036226;28;20395;-80
2021/12/25 13:44:18;;;;;;;;;;;3.50;1.00;;;;;;5057160;28;20381;-79
2021/12/25 13:46:45;;;;;;;;;;;3.40;1.00;;;;;;5057160;28;19913;-79
2021/12/25 13:49:27;;;;;;;;;;;3.40;1.00;;;;;;5041924;28;19913;-79
2021/12/25 13:51:53;;;;;;;;;;;3.40;1.00;;;;;;5033832;28;19925;-79
2021/12/25 13:54:22;;;;;;;;;;;3.40;1.00;;;;;;5034523;28;20403;-79
2021/12/25 13:56:48;;;;;;;;;;;3.30;1.00;;;;;;5051954;28;19913;-79
2021/12/25 13:59:13;;;;;;;;;;;3.30;1.00;;;;;;5057253;28;19913;-79
2021/12/25 14:01:39;;;;;;;;;;;3.30;14.20;;;;;;5056897;28;19917;-80
2021/12/25 14:04:11;;;;;;;;;;;3.40;57.60;;;;;;5055278;28;20020;-79
2021/12/25 14:06:37;;;;;;;;;;;3.30;1.00;;;;;;5035280;28;19912;-79
2021/12/25 14:09:04;;;;;;;;;;;3.30;33.60;;;;;;5040722;28;19913;-79
2021/12/25 14:11:29;;;;;;;;;;;3.30;99.90;;;;;;5059806;28;19967;-79
2021/12/25 14:13:55;;;;;;;;;;;3.30;1.00;;;;;;5051874;28;19917;-80
2021/12/25 14:16:21;;;;;;;;;;;3.30;1.00;;;;;;5055569;28;19923;-79
2021/12/25 14:18:47;;;;;;;;;;;3.20;1.00;;;;;;5058073;28;19908;-80
2021/12/25 14:21:17;;;;;;;;;;;3.20;1.00;;;;;;5056287;28;19927;-80
2021/12/25 14:23:43;;;;;;;;;;;3.20;91.80;;;;;;5055263;28;20403;-79
2021/12/25 14:26:08;;;;;;;;;;;3.20;92.00;;;;;;5029624;28;19920;-81
2021/12/25 14:28:35;;;;;;;;;;;3.20;99.90;;;;;;5042966;28;19919;-80
2021/12/25 14:31:02;;;;;;;;;;;3.30;99.90;;;;;;5040470;28;19936;-80
2021/12/25 14:33:31;;;;;;;;;;;3.20;61.80;;;;;;5054626;28;19992;-80
2021/12/25 14:35:57;;;;;;;;;;;3.20;1.00;;;;;;5057088;28;19913;-80
2021/12/25 14:38:22;;;;;;;;;;;3.20;91.20;;;;;;5058737;28;19955;-81
2021/12/25 14:40:49;;;;;;;;;;;3.20;99.90;;;;;;5058872;28;20371;-80
2021/12/25 14:43:26;;;;;;;;;;;3.20;98.20;;;;;;5057827;28;19999;-81
2021/12/25 14:45:53;;;;;;;;;;;3.30;99.90;;;;;;5058002;28;19912;-79
2021/12/25 14:48:26;;;;;;;;;;;3.30;99.90;;;;;;5042713;28;19913;-80
2021/12/25 14:51:05;;;;;;;;;;;3.30;99.90;;;;;;5041638;28;19959;-79
2021/12/25 14:53:31;;;;;;;;;;;3.30;99.90;;;;;;5045820;28;19967;-80
2021/12/25 14:55:58;;;;;;;;;;;3.30;99.90;;;;;;5057740;28;20368;-79
2021/12/25 14:58:26;;;;;;;;;;;3.30;99.90;;;;;;5044642;28;19983;-79
2021/12/25 15:01:03;;;;;;;;;;;3.30;61.10;;;;;;5058002;28;20285;-80
2021/12/25 15:03:29;;;;;;;;;;;3.30;18.40;;;;;;5055820;28;19921;-80
2021/12/25 15:05:55;;;;;;;;;;;3.30;99.90;;;;;;5044778;28;19982;-80
2021/12/25 15:08:22;;;;;;;;;;;3.30;99.90;;;;;;5054304;28;19951;-80
2021/12/25 15:10:48;;;;;;;;;;;3.30;31.20;;;;;;5042872;28;19923;-80
2021/12/25 15:13:15;;;;;;;;;;;3.20;25.60;;;;;;5056464;28;19909;-80
2021/12/25 15:16:01;;;;;;;;;;;3.20;82.30;;;;;;5039412;28;20057;-79
2021/12/25 15:18:29;;;;;;;;;;;3.20;51.20;;;;;;5048695;28;19995;-80
2021/12/25 15:21:13;;;;;;;;;;;3.10;43.20;;;;;;5056795;28;19980;-80
2021/12/25 15:23:39;;;;;;;;;;;3.10;99.90;;;;;;5056222;28;20385;-80
2021/12/25 15:26:06;;;;;;;;;;;3.20;99.90;;;;;;5042843;28;19986;-79
2021/12/25 15:28:31;;;;;;;;;;;3.10;99.90;;;;;;5038386;28;19917;-80
2021/12/25 15:30:57;;;;;;;;;;;3.10;99.90;;;;;;5056870;28;20460;-80
2021/12/25 15:33:24;;;;;;;;;;;3.20;99.90;;;;;;5055168;28;19913;-80
2021/12/25 15:35:50;;;;;;;;;;;3.20;63.20;;;;;;5054938;28;19960;-80
2021/12/25 15:38:27;;;;;;;;;;;3.20;99.90;;;;;;5045957;28;20392;-80
2021/12/25 15:40:53;;;;;;;;;;;3.10;99.90;;;;;;5055992;28;19996;-79
2021/12/25 15:43:19;;;;;;;;;;;3.10;99.90;;;;;;5038690;28;20274;-80
2021/12/25 15:45:44;;;;;;;;;;;3.10;99.90;;;;;;5041720;28;19961;-80
2021/12/25 15:48:10;;;;;;;;;;;3.10;99.90;;;;;;5056463;28;20297;-80
2021/12/25 15:50:36;;;;;;;;;;;3.10;99.90;;;;;;5056149;28;19917;-80
2021/12/25 15:53:03;;;;;;;;;;;3.10;99.90;;;;;;5055330;28;19919;-80
2021/12/25 15:55:32;;;;;;;;;;;3.10;99.90;;;;;;5055833;28;20285;-80